Alpine, Alabama
Current Conditions -  °F | °C
As of 10:55 AM on Friday 28 Nov 2014 (Local Time) from KSCD Reporting Station
Clear Clear  
Wind Chill:   Ceiling: Unl
Heat Index:   Visibility: 10mi
Dew Point: -7°   Wind: 5mph
Humidity: 40%   Direction: 30°NNE
Pressure: 30.43"   Gusts: NA
Location:  33.34°N, 86.23°W
Report Text: KSCD 281655Z AUTO 03004KT 10SM CLR 05/M07 A3043 RMK AO2 T00541074
Loading
Personal Weather Stations






























Interactive Weather Map New forecast layout! Learn more

10-Day Weather Forecast

Advertisements
Track Severe Weather on mobile